Time;durP1;ratioP1;P1;durP2;ratioP2;P2;SDS_P1;SDS_P2;PMS_P1;PMS_P2;Temp;Humidity;BMP_temperature;BMP_pressure;BME280_temperature;BME280_humidity;BME280_pressure;Samples;Min_cycle;Max_cycle;Signal;HPM_P1;HPM_P2
2021/01/13 00:02:19;;;;;;;14.00;1.63;;;0.90;99.90;;;;;;4948210;28;20960;-72
2021/01/13 00:04:44;;;;;;;14.60;2.33;;;0.90;99.90;;;;;;4945626;28;20041;-72
2021/01/13 00:07:12;;;;;;;17.65;1.95;;;0.90;99.90;;;;;;4947238;28;20054;-72
2021/01/13 00:09:38;;;;;;;10.93;1.50;;;0.80;99.90;;;;;;4948429;28;20047;-72
2021/01/13 00:12:05;;;;;;;10.93;1.70;;;0.80;99.90;;;;;;4946124;28;20045;-72
2021/01/13 00:14:30;;;;;;;10.07;1.83;;;0.80;99.90;;;;;;4949809;28;20507;-73
2021/01/13 00:16:56;;;;;;;12.32;1.70;;;0.90;99.90;;;;;;4947060;28;20102;-73
2021/01/13 00:19:21;;;;;;;9.95;1.88;;;0.90;99.90;;;;;;4963935;28;20037;-72
2021/01/13 00:21:51;;;;;;;15.02;2.15;;;0.90;99.90;;;;;;4947878;28;20752;-72
2021/01/13 00:24:17;;;;;;;23.55;3.03;;;0.90;99.90;;;;;;4941019;28;20070;-72
2021/01/13 00:26:44;;;;;;;10.25;1.75;;;0.90;99.90;;;;;;4953164;28;20053;-72
2021/01/13 00:29:13;;;;;;;13.25;2.10;;;0.90;99.90;;;;;;4951988;28;20078;-72
2021/01/13 00:31:39;;;;;;;8.00;1.70;;;0.90;99.90;;;;;;4951387;28;20035;-72
2021/01/13 00:34:06;;;;;;;10.30;1.60;;;0.80;99.90;;;;;;4949568;28;20594;-73
2021/01/13 00:36:32;;;;;;;11.57;2.38;;;0.80;99.90;;;;;;4953657;28;20145;-74
2021/01/13 00:38:58;;;;;;;7.65;1.73;;;0.80;99.90;;;;;;4955722;28;20117;-74
2021/01/13 00:41:24;;;;;;;10.48;1.65;;;0.80;99.90;;;;;;4966828;28;20027;-74
2021/01/13 00:43:52;;;;;;;7.88;1.83;;;0.80;99.90;;;;;;4954941;28;20556;-73
2021/01/13 00:46:19;;;;;;;11.82;1.88;;;0.80;99.90;;;;;;4952897;28;20058;-73
2021/01/13 00:48:44;;;;;;;7.47;1.75;;;0.80;99.90;;;;;;4954540;28;20106;-73
2021/01/13 00:51:10;;;;;;;7.90;1.60;;;0.80;99.90;;;;;;4952156;28;20114;-74
2021/01/13 00:53:36;;;;;;;6.50;1.52;;;0.90;99.90;;;;;;4952640;28;20046;-74
2021/01/13 00:56:02;;;;;;;12.55;2.28;;;0.90;99.90;;;;;;4952760;28;20646;-73
2021/01/13 00:58:28;;;;;;;10.60;3.67;;;0.90;99.90;;;;;;4949666;28;20041;-73
2021/01/13 01:00:54;;;;;;;12.10;2.22;;;0.90;99.90;;;;;;4945839;28;20055;-74
2021/01/13 01:03:20;;;;;;;8.82;1.90;;;1.00;99.90;;;;;;4948733;28;20793;-74
2021/01/13 01:05:48;;;;;;;5.65;2.13;;;0.90;99.90;;;;;;4961869;28;20067;-74
2021/01/13 01:08:14;;;;;;;14.00;2.67;;;0.90;99.90;;;;;;4946973;28;20035;-73
2021/01/13 01:10:40;;;;;;;12.02;2.70;;;1.00;99.90;;;;;;4952780;28;20043;-73
2021/01/13 01:13:08;;;;;;;12.07;2.42;;;1.10;99.90;;;;;;4952309;28;20069;-73
2021/01/13 01:15:35;;;;;;;12.38;2.95;;;1.10;99.90;;;;;;4947550;28;20035;-74
2021/01/13 01:18:01;;;;;;;13.27;2.25;;;1.10;99.90;;;;;;4952424;28;20038;-74
2021/01/13 01:20:27;;;;;;;10.48;2.75;;;1.20;99.90;;;;;;4964534;28;20129;-74
2021/01/13 01:22:57;;;;;;;13.15;2.80;;;1.20;99.90;;;;;;4949723;28;20467;-74
2021/01/13 01:25:25;;;;;;;11.32;2.70;;;1.30;99.90;;;;;;4951724;28;20046;-74
2021/01/13 01:27:53;;;;;;;14.52;2.70;;;1.30;99.90;;;;;;4948152;28;20043;-73
2021/01/13 01:30:19;;;;;;;14.77;2.70;;;1.30;99.90;;;;;;4965022;28;20042;-74
2021/01/13 01:32:45;;;;;;;17.17;3.00;;;1.30;99.90;;;;;;4952425;28;20086;-74
2021/01/13 01:35:12;;;;;;;14.63;2.83;;;1.30;99.90;;;;;;4955339;28;20031;-74
2021/01/13 01:37:39;;;;;;;11.35;2.60;;;1.40;99.90;;;;;;4962710;28;20097;-74
2021/01/13 01:40:08;;;;;;;15.00;2.80;;;1.40;99.90;;;;;;4949354;28;20101;-73
2021/01/13 01:42:34;;;;;;;17.85;3.80;;;1.40;99.90;;;;;;4948741;28;20044;-74
2021/01/13 01:45:01;;;;;;;13.43;3.33;;;1.40;99.90;;;;;;4951903;28;20057;-74
2021/01/13 01:47:59;;;;;;;12.27;2.78;;;1.40;99.90;;;;;;4949348;28;20099;-74
2021/01/13 01:50:36;;;;;;;15.82;2.67;;;1.40;99.90;;;;;;4947907;28;20559;-74
2021/01/13 01:53:17;;;;;;;17.88;4.88;;;1.50;99.90;;;;;;4945903;28;20518;-74
2021/01/13 01:55:53;;;;;;;17.33;3.10;;;1.50;99.90;;;;;;4950782;28;20648;-74
2021/01/13 01:58:27;;;;;;;8.50;2.38;;;1.50;99.90;;;;;;4951006;28;20031;-73
2021/01/13 02:00:58;;;;;;;16.30;3.08;;;1.60;99.90;;;;;;4950917;28;20045;-74
2021/01/13 02:03:28;;;;;;;17.73;3.30;;;1.60;99.90;;;;;;4964069;28;20031;-73
2021/01/13 02:06:02;;;;;;;17.10;3.15;;;1.60;99.90;;;;;;4950408;28;20487;-73
2021/01/13 02:08:35;;;;;;;16.50;2.97;;;1.60;99.90;;;;;;4946514;28;20039;-73
2021/01/13 02:11:01;;;;;;;17.23;3.33;;;1.60;99.90;;;;;;4952324;28;20510;-74
2021/01/13 02:13:26;;;;;;;17.75;2.78;;;1.60;99.90;;;;;;4947435;28;20031;-74
2021/01/13 02:15:52;;;;;;;17.20;3.83;;;1.60;99.90;;;;;;4966612;28;20048;-73
2021/01/13 02:18:22;;;;;;;14.93;3.00;;;1.60;99.90;;;;;;4965412;28;20031;-72
2021/01/13 02:20:53;;;;;;;18.90;3.20;;;1.60;99.90;;;;;;4944536;28;20069;-73
2021/01/13 02:23:32;;;;;;;8.95;2.45;;;1.60;99.90;;;;;;4953391;28;20027;-73
2021/01/13 02:26:28;;;;;;;13.57;3.40;;;1.60;99.90;;;;;;4956611;28;20034;-73
2021/01/13 02:28:54;;;;;;;18.00;2.92;;;1.70;99.90;;;;;;4955475;28;20585;-73
2021/01/13 02:31:37;;;;;;;18.13;2.70;;;1.70;99.90;;;;;;4968231;28;20030;-73
2021/01/13 02:34:08;;;;;;;8.57;2.45;;;1.80;99.90;;;;;;4953459;28;20060;-73
2021/01/13 02:36:34;;;;;;;12.82;2.85;;;1.70;99.90;;;;;;4953702;28;20031;-74
2021/01/13 02:39:07;;;;;;;16.40;2.65;;;1.80;99.90;;;;;;4969771;28;20041;-73
2021/01/13 02:41:42;;;;;;;12.88;2.67;;;1.70;99.90;;;;;;4953880;28;20909;-73
2021/01/13 02:44:11;;;;;;;7.18;2.65;;;1.80;99.90;;;;;;4947957;28;20340;-73
2021/01/13 02:46:55;;;;;;;12.77;2.70;;;1.70;99.90;;;;;;4955118;28;20150;-73
2021/01/13 02:49:31;;;;;;;9.70;2.45;;;1.80;99.90;;;;;;4963795;28;20146;-73
2021/01/13 02:51:58;;;;;;;13.23;3.17;;;1.70;99.90;;;;;;4968493;28;20034;-73
2021/01/13 02:54:27;;;;;;;14.15;2.83;;;1.70;99.90;;;;;;4951248;28;20035;-73
2021/01/13 02:56:55;;;;;;;19.20;3.97;;;1.80;99.90;;;;;;4953428;28;20042;-73
2021/01/13 02:59:22;;;;;;;10.65;2.83;;;1.80;99.90;;;;;;4968499;28;20803;-73
2021/01/13 03:01:49;;;;;;;17.05;3.10;;;1.80;99.90;;;;;;4949205;28;20592;-73
2021/01/13 03:04:15;;;;;;;14.05;4.35;;;1.80;99.90;;;;;;4967735;28;20726;-72
2021/01/13 03:06:43;;;;;;;21.95;3.28;;;1.80;99.90;;;;;;4952893;28;20033;-73
2021/01/13 03:09:11;;;;;;;15.68;3.95;;;1.70;99.90;;;;;;4955250;28;20046;-73
2021/01/13 03:11:38;;;;;;;11.10;2.70;;;1.70;99.90;;;;;;4950367;28;20045;-73
2021/01/13 03:14:15;;;;;;;17.35;3.13;;;1.60;99.90;;;;;;4948815;28;20043;-72
2021/01/13 03:16:48;;;;;;;9.55;2.80;;;1.70;99.90;;;;;;4948034;28;20050;-73
2021/01/13 03:19:28;;;;;;;28.63;4.60;;;1.60;99.90;;;;;;4948508;28;20038;-73
2021/01/13 03:22:01;;;;;;;16.00;2.88;;;1.70;99.90;;;;;;4953677;28;20600;-73
2021/01/13 03:25:00;;;;;;;21.55;2.97;;;1.70;99.90;;;;;;4948383;28;20031;-73
2021/01/13 03:27:36;;;;;;;11.10;2.63;;;1.80;99.90;;;;;;4948691;28;20047;-73
2021/01/13 03:30:04;;;;;;;16.30;3.60;;;1.80;99.90;;;;;;4952205;28;20031;-73
2021/01/13 03:32:54;;;;;;;17.55;2.88;;;1.70;99.90;;;;;;4969309;28;20467;-73
2021/01/13 03:35:29;;;;;;;11.80;3.08;;;1.70;99.90;;;;;;4954012;28;20039;-72
2021/01/13 03:37:59;;;;;;;12.23;2.88;;;1.80;99.90;;;;;;4955458;28;20074;-73
2021/01/13 03:40:27;;;;;;;18.90;3.00;;;1.80;99.90;;;;;;4950679;28;20039;-72
2021/01/13 03:42:55;;;;;;;18.88;2.97;;;1.80;99.90;;;;;;4948559;28;20027;-73
2021/01/13 03:45:34;;;;;;;16.05;3.03;;;1.80;99.90;;;;;;4949800;28;20039;-72
2021/01/13 03:48:10;;;;;;;11.38;2.42;;;1.80;99.90;;;;;;4954335;28;20039;-72
2021/01/13 03:50:42;;;;;;;13.30;2.70;;;1.70;99.90;;;;;;4967283;28;20027;-73
2021/01/13 03:53:10;;;;;;;20.08;3.40;;;1.70;99.90;;;;;;4953736;28;20093;-72
2021/01/13 03:55:38;;;;;;;20.73;3.03;;;1.70;99.90;;;;;;4947169;28;20038;-72
2021/01/13 03:58:26;;;;;;;16.10;2.97;;;1.70;99.90;;;;;;4946593;28;20070;-74
2021/01/13 04:01:03;;;;;;;11.43;2.78;;;1.70;99.90;;;;;;4947890;28;20039;-73
2021/01/13 04:03:31;;;;;;;30.15;4.00;;;1.70;99.90;;;;;;4952489;28;20038;-73
2021/01/13 04:06:08;;;;;;;12.73;2.55;;;1.70;99.90;;;;;;4947395;28;20047;-72
2021/01/13 04:08:44;;;;;;;12.77;2.95;;;1.70;99.90;;;;;;4949992;28;20042;-72
2021/01/13 04:11:21;;;;;;;17.15;3.22;;;1.70;99.90;;;;;;4946866;28;20481;-73
2021/01/13 04:13:49;;;;;;;15.68;2.92;;;1.80;99.90;;;;;;4962815;28;20039;-72
2021/01/13 04:16:23;;;;;;;23.58;4.13;;;1.80;99.90;;;;;;4948649;28;20051;-72
2021/01/13 04:18:51;;;;;;;19.15;2.83;;;1.80;99.90;;;;;;4948238;28;20130;-73
2021/01/13 04:21:18;;;;;;;11.70;2.95;;;1.90;99.90;;;;;;4947510;28;20471;-75
2021/01/13 04:23:44;;;;;;;10.98;2.83;;;1.90;99.90;;;;;;4947904;28;20038;-72
2021/01/13 04:26:12;;;;;;;17.10;3.53;;;1.90;99.90;;;;;;4965829;28;20054;-73
2021/01/13 04:28:38;;;;;;;8.70;2.83;;;1.90;99.90;;;;;;4966084;28;20043;-73
2021/01/13 04:31:04;;;;;;;16.67;2.80;;;2.00;99.90;;;;;;4953515;28;20146;-73
2021/01/13 04:33:31;;;;;;;10.98;2.90;;;2.00;99.90;;;;;;4949113;28;20134;-73
2021/01/13 04:35:57;;;;;;;11.95;2.72;;;1.90;99.90;;;;;;4952512;28;20032;-73
2021/01/13 04:38:29;;;;;;;13.90;3.08;;;2.00;99.90;;;;;;4949855;28;20980;-72
2021/01/13 04:41:17;;;;;;;16.13;2.88;;;1.90;99.90;;;;;;4951202;28;20030;-73
2021/01/13 04:43:55;;;;;;;10.57;3.38;;;1.90;99.90;;;;;;4951515;28;20034;-73
2021/01/13 04:46:34;;;;;;;11.60;2.80;;;1.90;99.90;;;;;;4948999;28;20034;-72
2021/01/13 04:49:15;;;;;;;14.75;2.97;;;1.90;99.90;;;;;;4964156;28;20128;-72
2021/01/13 04:51:45;;;;;;;14.85;2.97;;;1.90;99.90;;;;;;4951903;28;20043;-72
2021/01/13 04:54:16;;;;;;;12.65;3.00;;;1.90;99.90;;;;;;4947865;28;20039;-72
2021/01/13 04:56:44;;;;;;;12.85;2.90;;;1.80;99.90;;;;;;4962409;28;20558;-72
2021/01/13 04:59:32;;;;;;;15.00;3.60;;;1.80;99.90;;;;;;4967783;28;20178;-72
2021/01/13 05:02:11;;;;;;;10.85;2.70;;;1.70;99.90;;;;;;4948208;28;20127;-72
2021/01/13 05:04:56;;;;;;;13.02;2.97;;;1.70;99.90;;;;;;4963590;28;20031;-72
2021/01/13 05:07:39;;;;;;;12.88;3.28;;;1.70;99.90;;;;;;4948755;28;20039;-72
2021/01/13 05:10:11;;;;;;;12.88;2.60;;;1.60;99.90;;;;;;4952568;28;20078;-72
2021/01/13 05:12:53;;;;;;;16.73;2.95;;;1.60;99.90;;;;;;4951688;28;20399;-73
2021/01/13 05:15:24;;;;;;;15.98;3.50;;;1.60;99.90;;;;;;4948287;28;20104;-73
2021/01/13 05:17:56;;;;;;;17.75;3.10;;;1.50;99.90;;;;;;4946770;28;20109;-73
2021/01/13 05:20:30;;;;;;;8.15;2.92;;;1.50;99.90;;;;;;4949245;28;20043;-73
2021/01/13 05:22:57;;;;;;;12.82;3.13;;;1.60;99.90;;;;;;4965675;28;20130;-72
2021/01/13 05:25:50;;;;;;;16.33;3.15;;;1.60;99.90;;;;;;4947462;28;20649;-73
2021/01/13 05:28:20;;;;;;;10.63;3.75;;;1.50;99.90;;;;;;4952698;28;20031;-73
2021/01/13 05:30:55;;;;;;;16.63;4.40;;;1.50;99.90;;;;;;4957857;28;20589;-72
2021/01/13 05:33:25;;;;;;;12.50;3.80;;;1.50;99.90;;;;;;4950414;28;20133;-73
2021/01/13 05:35:56;;;;;;;12.80;3.63;;;1.50;99.90;;;;;;4951657;28;20069;-73
2021/01/13 05:38:55;;;;;;;12.43;4.10;;;1.50;99.90;;;;;;4950116;28;20037;-72
2021/01/13 05:41:21;;;;;;;18.63;3.90;;;1.40;99.90;;;;;;4949225;28;20042;-72
2021/01/13 05:43:49;;;;;;;22.60;4.30;;;1.40;99.90;;;;;;4952110;28;20041;-73
2021/01/13 05:46:17;;;;;;;21.73;3.75;;;1.40;99.90;;;;;;4951162;28;20727;-72
2021/01/13 05:48:46;;;;;;;20.80;3.38;;;1.30;99.90;;;;;;4951136;28;20148;-72
2021/01/13 05:51:12;;;;;;;17.77;4.43;;;1.30;99.90;;;;;;4951516;28;20038;-73
2021/01/13 05:53:38;;;;;;;17.73;3.90;;;1.30;99.90;;;;;;4951615;28;20039;-73
2021/01/13 05:56:04;;;;;;;14.93;3.38;;;1.30;99.90;;;;;;4954413;28;20054;-74
2021/01/13 05:58:31;;;;;;;22.30;4.32;;;1.30;99.90;;;;;;4953449;28;20086;-73
2021/01/13 06:00:58;;;;;;;17.63;4.65;;;1.30;99.90;;;;;;4971125;28;20066;-73
2021/01/13 06:03:27;;;;;;;21.27;4.07;;;1.30;99.90;;;;;;4953457;28;20035;-73
2021/01/13 06:06:04;;;;;;;21.92;3.97;;;1.30;99.90;;;;;;4939867;28;20035;-73
2021/01/13 06:08:32;;;;;;;15.05;3.75;;;1.30;99.90;;;;;;4953412;28;20468;-75
2021/01/13 06:11:02;;;;;;;16.33;4.53;;;1.30;99.90;;;;;;4955849;28;20038;-73
2021/01/13 06:13:33;;;;;;;18.27;4.38;;;1.30;99.90;;;;;;4973144;28;20755;-73
2021/01/13 06:16:01;;;;;;;23.98;5.00;;;1.40;99.90;;;;;;4960561;28;20039;-73
2021/01/13 06:18:27;;;;;;;14.23;4.10;;;1.30;99.90;;;;;;4969337;28;20038;-73
2021/01/13 06:21:00;;;;;;;17.42;3.90;;;1.40;99.90;;;;;;4962667;28;20047;-74
2021/01/13 06:23:29;;;;;;;14.32;4.38;;;1.40;99.90;;;;;;4959446;28;20037;-73
2021/01/13 06:25:56;;;;;;;23.25;4.85;;;1.40;99.90;;;;;;4952938;28;20534;-73
2021/01/13 06:28:40;;;;;;;13.18;4.78;;;1.50;99.90;;;;;;4956289;28;20027;-73
2021/01/13 06:31:08;;;;;;;13.50;4.20;;;1.60;99.90;;;;;;4963903;28;20037;-74
2021/01/13 06:34:04;;;;;;;21.40;5.97;;;1.60;99.90;;;;;;4956662;28;20124;-73
2021/01/13 06:36:39;;;;;;;20.75;5.00;;;1.60;99.90;;;;;;4953531;28;20034;-73
2021/01/13 06:39:06;;;;;;;21.70;3.28;;;1.70;99.90;;;;;;4973703;28;20034;-74
2021/01/13 06:41:44;;;;;;;22.23;4.40;;;1.70;99.90;;;;;;4960477;28;20157;-74
2021/01/13 06:44:10;;;;;;;17.20;4.40;;;1.70;99.90;;;;;;4958762;28;20027;-74
2021/01/13 06:46:36;;;;;;;15.95;4.22;;;1.70;99.90;;;;;;4957511;28;20100;-74
2021/01/13 06:49:19;;;;;;;10.52;4.00;;;1.70;99.90;;;;;;4944245;28;20042;-73
2021/01/13 06:51:49;;;;;;;14.30;3.85;;;1.70;99.90;;;;;;4961050;28;20237;-74
2021/01/13 06:54:20;;;;;;;11.20;4.10;;;1.60;99.90;;;;;;4957064;28;20039;-74
2021/01/13 06:56:49;;;;;;;20.73;3.88;;;1.70;99.90;;;;;;4953824;28;20808;-74
2021/01/13 06:59:16;;;;;;;22.90;4.72;;;1.70;99.90;;;;;;4947962;28;20875;-74
2021/01/13 07:01:49;;;;;;;19.27;4.07;;;1.80;99.90;;;;;;4951039;28;20034;-74
2021/01/13 07:04:15;;;;;;;15.80;4.22;;;1.80;99.90;;;;;;4967729;28;20045;-74
2021/01/13 07:07:06;;;;;;;14.55;3.70;;;1.90;99.90;;;;;;4954682;28;20039;-73
2021/01/13 07:09:41;;;;;;;22.25;4.88;;;1.90;99.90;;;;;;4955629;28;20041;-73
2021/01/13 07:12:17;;;;;;;18.02;3.30;;;1.90;99.90;;;;;;4968557;28;20890;-74
2021/01/13 07:14:44;;;;;;;16.67;3.90;;;1.90;99.90;;;;;;4956727;28;20445;-74
2021/01/13 07:17:15;;;;;;;18.05;3.50;;;2.00;99.90;;;;;;4959781;28;20035;-74
2021/01/13 07:19:47;;;;;;;13.25;3.53;;;2.00;99.90;;;;;;4967612;28;20100;-74
2021/01/13 07:22:15;;;;;;;14.48;5.00;;;2.00;99.90;;;;;;4959289;28;20081;-73
2021/01/13 07:24:42;;;;;;;12.52;3.78;;;2.00;99.90;;;;;;4962837;28;20860;-73
2021/01/13 07:27:09;;;;;;;13.00;3.20;;;2.10;99.90;;;;;;4959008;28;20038;-73
2021/01/13 07:29:35;;;;;;;18.52;3.33;;;2.10;99.90;;;;;;4970620;28;20650;-73
2021/01/13 07:32:03;;;;;;;15.65;3.08;;;2.10;99.90;;;;;;4948412;28;20041;-71
2021/01/13 07:34:37;;;;;;;13.05;3.13;;;2.10;99.90;;;;;;4950187;28;20054;-71
2021/01/13 07:37:11;;;;;;;19.00;3.10;;;2.20;99.90;;;;;;4953829;28;20042;-71
2021/01/13 07:39:58;;;;;;;10.30;2.88;;;2.20;99.90;;;;;;4954974;28;20031;-70
2021/01/13 07:42:33;;;;;;;13.18;3.83;;;2.30;99.90;;;;;;4959125;28;20039;-71
2021/01/13 07:45:19;;;;;;;9.05;2.78;;;2.30;99.90;;;;;;4956016;28;20038;-71
2021/01/13 07:48:20;;;;;;;18.42;3.40;;;2.30;99.90;;;;;;4954916;28;20035;-71
2021/01/13 07:50:49;;;;;;;16.73;3.72;;;2.30;99.90;;;;;;4946959;28;20079;-69
2021/01/13 07:53:37;;;;;;;12.38;3.15;;;2.40;99.90;;;;;;4957860;28;20494;-69
2021/01/13 07:56:04;;;;;;;24.58;5.15;;;2.40;99.90;;;;;;4944830;28;20846;-70
2021/01/13 07:58:31;;;;;;;13.18;2.75;;;2.40;99.90;;;;;;4962816;28;20682;-71
2021/01/13 08:01:01;;;;;;;12.73;2.45;;;2.40;99.90;;;;;;4960991;28;20142;-70
2021/01/13 08:03:54;;;;;;;11.82;3.17;;;2.40;99.90;;;;;;4953236;28;20027;-70
2021/01/13 08:06:34;;;;;;;12.77;2.50;;;2.40;99.90;;;;;;4971505;28;20039;-71
2021/01/13 08:09:07;;;;;;;11.35;3.58;;;2.30;99.90;;;;;;4953450;28;20134;-72
2021/01/13 08:11:58;;;;;;;13.18;3.20;;;2.30;99.90;;;;;;4953192;28;20046;-70
2021/01/13 08:14:54;;;;;;;17.40;2.80;;;2.40;99.90;;;;;;4957750;28;20058;-70
2021/01/13 08:17:53;;;;;;;12.07;3.30;;;2.40;99.90;;;;;;4954913;28;20046;-71
2021/01/13 08:21:00;;;;;;;13.57;2.63;;;2.50;99.90;;;;;;4950374;28;20031;-70
2021/01/13 08:23:36;;;;;;;14.60;2.72;;;2.50;99.90;;;;;;4956673;28;20074;-70
2021/01/13 08:26:05;;;;;;;9.10;2.40;;;2.50;99.90;;;;;;4951486;28;20035;-70
2021/01/13 08:28:42;;;;;;;21.40;3.55;;;2.50;99.90;;;;;;4964309;28;20031;-70
2021/01/13 08:31:08;;;;;;;14.07;2.80;;;2.50;99.90;;;;;;4956570;28;20046;-70
2021/01/13 08:33:39;;;;;;;13.27;2.70;;;2.50;99.90;;;;;;4955737;28;20031;-70
2021/01/13 08:36:13;;;;;;;10.90;2.40;;;2.70;99.90;;;;;;4955077;28;20038;-71
2021/01/13 08:39:14;;;;;;;8.32;2.13;;;2.80;99.90;;;;;;4956473;28;20132;-72
2021/01/13 08:41:42;;;;;;;14.68;2.60;;;2.80;99.90;;;;;;4952723;28;20035;-70
2021/01/13 08:44:17;;;;;;;11.38;2.20;;;2.80;99.90;;;;;;4971983;28;20411;-71
2021/01/13 08:46:48;;;;;;;16.77;2.30;;;2.90;99.90;;;;;;4950233;28;20906;-71
2021/01/13 08:49:25;;;;;;;13.73;3.83;;;3.00;99.90;;;;;;4955586;28;20134;-68
2021/01/13 08:52:15;;;;;;;6.35;1.90;;;3.00;99.90;;;;;;4950284;28;20041;-69
2021/01/13 08:54:42;;;;;;;12.68;2.42;;;3.00;99.90;;;;;;4958650;28;20030;-70
2021/01/13 08:57:09;;;;;;;13.02;2.30;;;3.00;99.90;;;;;;4970032;28;20068;-70
2021/01/13 08:59:38;;;;;;;7.78;2.00;;;3.00;99.90;;;;;;4952804;28;20146;-71
2021/01/13 09:02:07;;;;;;;9.20;2.25;;;3.00;99.90;;;;;;4959825;28;20038;-72
2021/01/13 09:04:48;;;;;;;13.43;2.13;;;3.00;99.90;;;;;;4942520;28;20782;-71
2021/01/13 09:07:35;;;;;;;13.50;3.65;;;2.90;99.90;;;;;;4956069;28;20043;-72
2021/01/13 09:10:07;;;;;;;10.75;2.13;;;3.00;99.90;;;;;;4963223;28;20105;-72
2021/01/13 09:12:37;;;;;;;11.63;2.20;;;3.00;99.90;;;;;;4967302;28;20269;-77
2021/01/13 09:15:25;;;;;;;14.30;4.82;;;3.00;99.90;;;;;;4970353;28;20216;-72
2021/01/13 09:17:58;;;;;;;7.57;2.08;;;3.00;99.90;;;;;;4951871;28;20045;-72
2021/01/13 09:20:28;;;;;;;8.98;2.17;;;3.10;99.90;;;;;;4950129;28;20035;-71
2021/01/13 09:22:59;;;;;;;22.27;5.03;;;3.20;99.90;;;;;;4951681;28;20050;-71
2021/01/13 09:25:30;;;;;;;16.63;5.80;;;3.10;99.90;;;;;;4971096;28;20036;-72
2021/01/13 09:28:03;;;;;;;13.27;2.90;;;3.20;99.90;;;;;;4942006;28;20946;-72
2021/01/13 09:30:30;;;;;;;9.30;1.95;;;3.40;99.90;;;;;;4961410;28;20047;-72
2021/01/13 09:32:58;;;;;;;10.05;2.33;;;3.50;99.90;;;;;;4957359;28;20038;-72
2021/01/13 09:35:48;;;;;;;10.00;2.63;;;3.50;99.90;;;;;;4956366;28;20870;-72
2021/01/13 09:38:25;;;;;;;11.13;3.05;;;3.40;99.90;;;;;;4957116;28;20063;-71
2021/01/13 09:40:51;;;;;;;12.23;2.47;;;3.40;99.90;;;;;;4942893;28;20846;-72
2021/01/13 09:43:41;;;;;;;10.38;2.28;;;3.40;99.90;;;;;;4955498;28;20061;-72
2021/01/13 09:46:28;;;;;;;13.73;2.30;;;3.30;99.90;;;;;;4958567;28;20051;-70
2021/01/13 09:49:04;;;;;;;8.38;3.17;;;3.40;99.90;;;;;;4957098;28;20116;-72
2021/01/13 09:51:30;;;;;;;17.67;5.47;;;3.30;99.90;;;;;;4959472;28;20491;-72
2021/01/13 09:53:58;;;;;;;7.97;2.60;;;3.40;99.90;;;;;;4962832;28;20084;-71
2021/01/13 09:56:25;;;;;;;9.70;2.85;;;3.50;99.90;;;;;;4959207;28;20042;-71
2021/01/13 09:58:52;;;;;;;8.57;2.50;;;3.50;99.90;;;;;;4957931;28;20043;-71
2021/01/13 10:01:19;;;;;;;6.50;2.67;;;3.50;99.90;;;;;;4955479;28;20748;-72
2021/01/13 10:03:47;;;;;;;13.20;5.00;;;3.50;99.90;;;;;;4977706;28;20027;-71
2021/01/13 10:06:15;;;;;;;6.00;2.53;;;3.40;99.90;;;;;;4970511;28;20046;-72
2021/01/13 10:08:42;;;;;;;6.10;2.65;;;3.50;99.90;;;;;;4960348;28;20035;-72
2021/01/13 10:11:08;;;;;;;6.55;2.80;;;3.50;99.90;;;;;;4962989;28;20038;-72
2021/01/13 10:13:37;;;;;;;7.45;2.40;;;3.50;99.90;;;;;;4951451;28;20046;-72
2021/01/13 10:16:03;;;;;;;8.63;2.45;;;3.60;99.90;;;;;;4945500;28;20048;-72
2021/01/13 10:18:29;;;;;;;10.52;2.67;;;3.60;99.90;;;;;;4957567;28;20027;-71
2021/01/13 10:20:56;;;;;;;11.48;2.42;;;3.60;99.90;;;;;;4961516;28;20049;-72
2021/01/13 10:23:29;;;;;;;8.63;2.30;;;3.60;99.90;;;;;;4961053;28;20085;-72
2021/01/13 10:26:06;;;;;;;11.85;2.42;;;3.60;99.90;;;;;;4971705;28;20081;-72
2021/01/13 10:28:33;;;;;;;13.10;2.03;;;3.70;99.90;;;;;;4957821;28;20034;-72
2021/01/13 10:31:00;;;;;;;12.27;2.28;;;3.80;99.90;;;;;;4957254;28;20047;-72
2021/01/13 10:33:44;;;;;;;9.52;2.15;;;3.70;99.90;;;;;;4957788;28;20535;-72
2021/01/13 10:36:30;;;;;;;6.38;2.10;;;3.70;99.90;;;;;;4960197;28;20042;-72
2021/01/13 10:38:57;;;;;;;8.75;2.63;;;3.60;99.90;;;;;;4961797;28;20039;-72
2021/01/13 10:41:38;;;;;;;9.80;2.10;;;3.60;99.90;;;;;;4958516;28;20035;-72
2021/01/13 10:44:08;;;;;;;12.43;2.55;;;3.50;99.90;;;;;;4955277;28;20061;-71
2021/01/13 10:46:45;;;;;;;8.77;2.13;;;3.50;99.90;;;;;;4955467;28;20058;-75
2021/01/13 10:49:23;;;;;;;9.43;1.90;;;3.60;99.90;;;;;;4954229;28;20553;-72
2021/01/13 10:51:52;;;;;;;5.43;1.90;;;3.70;99.90;;;;;;4960081;28;20038;-72
2021/01/13 10:54:26;;;;;;;8.93;2.08;;;3.80;99.90;;;;;;4952333;28;20046;-72
2021/01/13 10:57:03;;;;;;;7.05;2.20;;;4.00;99.90;;;;;;4953649;28;20062;-72
2021/01/13 10:59:30;;;;;;;13.88;2.47;;;4.10;99.90;;;;;;4958303;28;20551;-72
2021/01/13 11:02:01;;;;;;;11.23;2.17;;;4.20;99.90;;;;;;4956852;28;20121;-71
2021/01/13 11:04:33;;;;;;;7.43;2.35;;;4.10;99.90;;;;;;4953652;28;20042;-72
2021/01/13 11:07:06;;;;;;;10.15;2.38;;;4.00;99.90;;;;;;4955276;28;20553;-71
2021/01/13 11:09:33;;;;;;;9.50;2.55;;;4.00;99.90;;;;;;4959406;28;20038;-72
2021/01/13 11:11:59;;;;;;;6.00;1.77;;;4.00;99.90;;;;;;4968001;28;20049;-72
2021/01/13 11:14:38;;;;;;;8.45;2.17;;;3.90;99.90;;;;;;4965928;28;20832;-72
2021/01/13 11:17:13;;;;;;;10.27;1.60;;;3.90;99.90;;;;;;4958532;28;20053;-72
2021/01/13 11:19:41;;;;;;;4.95;1.77;;;3.90;99.90;;;;;;4954037;28;20031;-72
2021/01/13 11:22:07;;;;;;;9.77;2.78;;;3.90;99.90;;;;;;4953635;28;20030;-72
2021/01/13 11:24:39;;;;;;;6.20;3.03;;;4.00;99.90;;;;;;4953634;28;20034;-72
2021/01/13 11:27:11;;;;;;;9.48;2.72;;;4.00;99.90;;;;;;4947933;28;20049;-73
2021/01/13 11:29:39;;;;;;;8.18;3.08;;;4.00;99.90;;;;;;4954634;28;20046;-72
2021/01/13 11:32:07;;;;;;;9.38;1.98;;;4.10;99.90;;;;;;4952976;28;20039;-71
2021/01/13 11:34:33;;;;;;;8.48;1.85;;;4.10;99.90;;;;;;4962602;28;20042;-72
2021/01/13 11:37:32;;;;;;;5.95;1.60;;;4.00;99.90;;;;;;4958440;28;20034;-72
2021/01/13 11:40:04;;;;;;;13.02;2.20;;;3.90;99.90;;;;;;4966734;28;20043;-72
2021/01/13 11:42:42;;;;;;;9.10;1.88;;;3.90;99.90;;;;;;4958197;28;20031;-72
2021/01/13 11:45:29;;;;;;;7.43;1.70;;;3.90;99.90;;;;;;4968088;28;20038;-72
2021/01/13 11:48:00;;;;;;;9.38;1.70;;;4.00;99.90;;;;;;4959332;28;20049;-75
2021/01/13 11:50:46;;;;;;;;;;;;;;;;;;;;;
2021/01/13 11:53:28;;;;;;;9.13;2.30;;;4.00;99.90;;;;;;4954394;28;20038;-74
2021/01/13 11:55:55;;;;;;;9.20;2.20;;;4.10;99.90;;;;;;4949839;28;20138;-73
2021/01/13 11:58:21;;;;;;;13.45;2.25;;;4.00;99.90;;;;;;4972817;28;20973;-73
2021/01/13 12:00:47;;;;;;;10.27;2.58;;;4.10;99.90;;;;;;4958183;28;20034;-73
2021/01/13 12:03:19;;;;;;;11.52;2.70;;;4.10;99.90;;;;;;4956959;28;20046;-73
2021/01/13 12:05:45;;;;;;;11.07;3.00;;;4.10;99.90;;;;;;4957776;28;20034;-73
2021/01/13 12:08:18;;;;;;;8.25;2.45;;;4.10;99.90;;;;;;4955268;28;20039;-73
2021/01/13 12:10:53;;;;;;;8.90;2.53;;;4.10;99.90;;;;;;4950365;28;20049;-73
2021/01/13 12:13:20;;;;;;;10.90;2.45;;;4.20;99.90;;;;;;4954640;28;20133;-73
2021/01/13 12:15:54;;;;;;;11.07;2.42;;;4.20;99.90;;;;;;4955803;28;20066;-73
2021/01/13 12:18:49;;;;;;;8.45;2.65;;;4.10;99.90;;;;;;4971206;28;20093;-73
2021/01/13 12:21:14;;;;;;;11.63;2.67;;;4.10;99.90;;;;;;4946808;28;20516;-73
2021/01/13 12:23:41;;;;;;;7.55;2.97;;;4.20;99.90;;;;;;4953392;28;20035;-73
2021/01/13 12:26:24;;;;;;;7.63;2.75;;;4.30;99.90;;;;;;4951604;28;20101;-73
2021/01/13 12:28:52;;;;;;;17.48;3.10;;;4.20;99.90;;;;;;4970034;28;20138;-73
2021/01/13 12:31:19;;;;;;;13.00;3.05;;;4.20;99.90;;;;;;4966786;28;20102;-73
2021/01/13 12:33:56;;;;;;;8.82;2.75;;;4.10;99.90;;;;;;4958868;28;20045;-73
2021/01/13 12:36:26;;;;;;;14.40;3.65;;;4.20;99.90;;;;;;4952860;28;20495;-73
2021/01/13 12:38:54;;;;;;;13.50;3.38;;;4.40;99.90;;;;;;4952870;28;20034;-73
2021/01/13 12:41:27;;;;;;;18.08;4.10;;;4.60;99.90;;;;;;4958995;28;20035;-72
2021/01/13 12:43:54;;;;;;;12.85;2.63;;;4.60;99.90;;;;;;4948536;28;20034;-72
2021/01/13 12:46:27;;;;;;;11.70;2.67;;;4.60;99.90;;;;;;4955703;28;20053;-72
2021/01/13 12:48:54;;;;;;;13.27;2.72;;;4.60;99.90;;;;;;4950301;28;20869;-72
2021/01/13 12:51:20;;;;;;;14.73;3.33;;;4.40;99.90;;;;;;4951566;28;20045;-72
2021/01/13 12:53:45;;;;;;;11.23;2.53;;;4.30;99.90;;;;;;4954827;28;20059;-73
2021/01/13 12:56:40;;;;;;;13.50;3.75;;;4.30;99.90;;;;;;4957427;28;20034;-73
2021/01/13 12:59:06;;;;;;;21.33;3.33;;;4.30;99.90;;;;;;4957506;28;20070;-73
2021/01/13 13:01:47;;;;;;;9.32;2.00;;;4.20;99.90;;;;;;4957749;28;20208;-72
2021/01/13 13:04:13;;;;;;;11.68;3.25;;;4.30;99.90;;;;;;4953763;28;20043;-72
2021/01/13 13:06:39;;;;;;;16.13;2.58;;;4.30;99.90;;;;;;4958893;28;20034;-73
2021/01/13 13:09:10;;;;;;;8.88;2.33;;;4.20;99.90;;;;;;4955996;28;20069;-73
2021/01/13 13:11:37;;;;;;;10.60;5.10;;;4.20;99.90;;;;;;4957276;28;20050;-75
2021/01/13 13:14:03;;;;;;;10.15;2.17;;;4.20;99.90;;;;;;4955954;28;20034;-72
2021/01/13 13:16:29;;;;;;;8.50;2.28;;;4.10;99.90;;;;;;4957097;28;20500;-72
2021/01/13 13:18:56;;;;;;;9.43;2.25;;;4.20;99.90;;;;;;4952470;28;20105;-73